Time;durP1;ratioP1;P1;durP2;ratioP2;P2;SDS_P1;SDS_P2;PMS_P1;PMS_P2;Temp;Humidity;BMP_temperature;BMP_pressure;BME280_temperature;BME280_humidity;BME280_pressure;Samples;Min_cycle;Max_cycle;Signal;HPM_P1;HPM_P2
2023/12/05 00:00:39;;;;;;;6.85;4.05;;;3.30;99.90;;;3.26;100.00;99285.34;4882953;28;24515;-69
2023/12/05 00:03:02;;;;;;;19.88;9.80;;;3.30;99.90;;;3.28;100.00;99288.66;4875705;28;24451;-69
2023/12/05 00:05:24;;;;;;;20.23;10.80;;;3.20;99.90;;;3.30;100.00;99286.00;4885942;28;24514;-69
2023/12/05 00:07:46;;;;;;;18.77;10.88;;;3.30;99.90;;;3.37;100.00;99284.66;4882240;28;24485;-69
2023/12/05 00:10:08;;;;;;;17.67;10.25;;;3.30;99.90;;;3.40;100.00;99284.47;4881053;28;24424;-69
2023/12/05 00:12:29;;;;;;;13.70;7.65;;;3.40;99.90;;;3.41;100.00;99286.13;4875378;28;24932;-70
2023/12/05 00:14:51;;;;;;;14.00;7.57;;;3.30;99.90;;;3.41;100.00;99279.22;4884990;28;24438;-70
2023/12/05 00:17:13;;;;;;;16.90;7.23;;;3.30;99.90;;;3.31;100.00;99277.31;4881923;28;24541;-70
2023/12/05 00:19:35;;;;;;;13.45;8.13;;;3.30;99.90;;;3.39;100.00;99280.22;4887244;28;24960;-70
2023/12/05 00:21:57;;;;;;;14.85;8.05;;;3.30;99.90;;;3.33;100.00;99285.78;4889104;28;24423;-70
2023/12/05 00:24:19;;;;;;;8.90;5.28;;;3.40;99.90;;;3.33;100.00;99289.19;4890176;28;24439;-70
2023/12/05 00:26:41;;;;;;;6.53;4.07;;;3.30;99.90;;;3.24;100.00;99288.97;4893205;28;24835;-69
2023/12/05 00:29:03;;;;;;;9.57;5.75;;;3.30;99.90;;;3.20;100.00;99290.06;4887077;28;24447;-70
2023/12/05 00:31:25;;;;;;;11.05;6.85;;;3.20;99.90;;;3.17;100.00;99297.06;4881160;28;24477;-69
2023/12/05 00:33:47;;;;;;;10.90;6.73;;;3.20;99.90;;;3.19;100.00;99291.81;4891419;28;21377;-67
2023/12/05 00:36:10;;;;;;;12.00;6.50;;;3.10;99.90;;;3.26;100.00;99294.84;4885063;28;24514;-70
2023/12/05 00:38:33;;;;;;;12.55;7.63;;;3.20;99.90;;;3.26;100.00;99276.81;4879807;28;24860;-70
2023/12/05 00:40:58;;;;;;;14.35;8.20;;;3.20;99.90;;;3.36;100.00;99285.59;4891366;28;24538;-70
2023/12/05 00:43:20;;;;;;;13.05;7.65;;;3.30;99.90;;;3.33;100.00;99283.19;4886297;28;25047;-70
2023/12/05 00:45:42;;;;;;;13.77;7.40;;;3.30;99.90;;;3.32;100.00;99279.81;4887917;28;25053;-70
2023/12/05 00:48:04;;;;;;;13.00;7.80;;;3.30;99.90;;;3.33;100.00;99270.31;4886544;28;25055;-70
2023/12/05 00:50:26;;;;;;;14.07;8.40;;;3.30;99.90;;;3.40;100.00;99276.75;4886575;28;25027;-70
2023/12/05 00:52:58;;;;;;;7.72;4.95;;;3.30;99.90;;;3.37;100.00;99279.50;4890220;28;24454;-72
2023/12/05 00:55:21;;;;;;;11.18;6.70;;;3.30;99.90;;;3.40;100.00;99280.16;4893912;28;25414;-70
2023/12/05 00:57:42;;;;;;;13.43;7.18;;;3.30;99.90;;;3.35;100.00;99279.59;4891947;28;24583;-69
2023/12/05 01:00:09;;;;;;;11.43;7.30;;;3.30;99.90;;;3.37;100.00;99276.91;4877706;28;24953;-69
2023/12/05 01:02:31;;;;;;;13.30;7.25;;;3.30;99.90;;;3.41;100.00;99273.25;4879464;28;24503;-70
2023/12/05 01:04:53;;;;;;;12.00;6.80;;;3.40;99.90;;;3.53;100.00;99277.63;4888048;28;24484;-71
2023/12/05 01:07:15;;;;;;;10.48;6.13;;;3.40;99.90;;;3.51;100.00;99285.44;4882755;28;25003;-68
2023/12/05 01:09:38;;;;;;;10.40;6.63;;;3.50;99.90;;;3.56;100.00;99275.66;4888237;28;24467;-70
2023/12/05 01:12:00;;;;;;;13.68;7.50;;;3.50;99.90;;;3.58;100.00;99273.78;4887383;28;24455;-70
2023/12/05 01:14:22;;;;;;;9.85;5.72;;;3.60;99.90;;;3.55;100.00;99275.75;4882570;28;24517;-70
2023/12/05 01:16:44;;;;;;;7.32;3.33;;;3.50;99.90;;;3.56;100.00;99272.25;4887606;28;24423;-71
2023/12/05 01:19:05;;;;;;;8.97;5.40;;;3.50;99.90;;;3.63;100.00;99268.34;4876708;28;24434;-70
2023/12/05 01:21:27;;;;;;;7.32;5.20;;;3.60;99.90;;;3.75;100.00;99276.09;4882646;28;24881;-68
2023/12/05 01:23:49;;;;;;;8.93;5.03;;;3.70;99.90;;;3.68;100.00;99259.41;4887284;28;24426;-70
2023/12/05 01:26:11;;;;;;;8.07;4.85;;;3.70;99.90;;;3.74;100.00;99276.22;4893654;28;25044;-70
2023/12/05 01:28:33;;;;;;;5.28;3.35;;;3.70;99.90;;;3.76;100.00;99270.03;4884805;28;24529;-68
2023/12/05 01:30:55;;;;;;;6.45;3.95;;;3.70;99.90;;;3.82;100.00;99281.69;4886530;28;24476;-70
2023/12/05 01:33:17;;;;;;;8.38;4.85;;;3.80;99.90;;;3.78;100.00;99264.75;4882993;28;24455;-70
2023/12/05 01:35:40;;;;;;;5.32;2.30;;;3.80;99.90;;;3.80;100.00;99276.66;4893829;28;24443;-70
2023/12/05 01:38:02;;;;;;;5.43;3.65;;;3.80;99.90;;;3.86;100.00;99272.81;4884896;28;24514;-70
2023/12/05 01:40:24;;;;;;;5.20;4.38;;;3.90;99.90;;;3.78;100.00;99277.66;4881630;28;25058;-70
2023/12/05 01:42:46;;;;;;;4.93;3.28;;;3.80;99.90;;;3.82;100.00;99273.94;4886089;28;24489;-69
2023/12/05 01:45:08;;;;;;;4.57;3.35;;;3.80;99.90;;;3.89;100.00;99276.03;4883487;28;24521;-69
2023/12/05 01:47:31;;;;;;;8.65;4.88;;;3.90;99.90;;;3.86;100.00;99276.25;4887322;28;24533;-70
2023/12/05 01:49:55;;;;;;;9.00;5.63;;;3.90;99.90;;;3.91;100.00;99268.19;4894393;28;24461;-70
2023/12/05 01:52:18;;;;;;;7.38;5.00;;;3.90;99.90;;;4.01;100.00;99273.56;4891870;28;24507;-70
2023/12/05 01:54:40;;;;;;;6.68;4.20;;;4.00;99.90;;;3.86;100.00;99270.25;4878334;28;24793;-71
2023/12/05 01:57:02;;;;;;;8.55;5.28;;;3.90;99.90;;;3.86;100.00;99272.81;4883757;28;24419;-69
2023/12/05 01:59:25;;;;;;;12.45;6.57;;;3.90;99.90;;;3.78;100.00;99277.66;4879099;28;24518;-70
2023/12/05 02:01:49;;;;;;;9.95;5.50;;;3.80;99.90;;;3.81;100.00;99272.31;4880589;28;24482;-70
2023/12/05 02:04:11;;;;;;;8.32;4.88;;;3.80;99.90;;;3.80;100.00;99266.31;4881937;28;24500;-70
2023/12/05 02:06:33;;;;;;;10.93;5.93;;;3.80;99.90;;;3.83;100.00;99260.16;4884388;28;24542;-70
2023/12/05 02:08:57;;;;;;;6.43;4.43;;;3.80;99.90;;;3.79;100.00;99261.28;4884870;28;24543;-70
2023/12/05 02:11:19;;;;;;;10.10;5.80;;;3.80;99.90;;;3.80;100.00;99271.47;4884444;28;24462;-70
2023/12/05 02:13:43;;;;;;;11.68;7.10;;;3.80;99.90;;;3.84;100.00;99266.94;4880098;28;24454;-71
2023/12/05 02:16:29;;;;;;;10.02;5.60;;;3.80;99.90;;;3.91;100.00;99268.19;4890383;28;25024;-70
2023/12/05 02:19:02;;;;;;;11.53;6.73;;;3.90;99.90;;;3.91;100.00;99263.03;4883494;28;25076;-70
2023/12/05 02:21:31;;;;;;;10.55;5.93;;;3.90;99.90;;;3.91;100.00;99260.44;4879847;28;24475;-70
2023/12/05 02:24:49;;;;;;;9.05;6.00;;;3.90;99.90;;;3.95;100.00;99259.31;4875977;28;24462;-70
2023/12/05 02:27:43;;;;;;;9.85;5.20;;;3.90;99.90;;;4.00;100.00;99267.59;4888342;28;24511;-70
2023/12/05 02:30:06;;;;;;;10.05;5.82;;;3.90;99.90;;;3.86;100.00;99262.50;4860385;28;24427;-70
2023/12/05 02:32:28;;;;;;;6.15;3.92;;;3.90;99.90;;;3.83;100.00;99260.16;4881394;28;24449;-70
2023/12/05 02:34:50;;;;;;;8.97;5.07;;;3.80;99.90;;;3.77;100.00;99261.34;4909327;28;24480;-70
2023/12/05 02:37:34;;;;;;;4.90;3.20;;;3.80;99.90;;;3.75;100.00;99273.53;4889800;28;24443;-67
2023/12/05 02:40:15;;;;;;;7.32;4.78;;;3.80;99.90;;;3.75;100.00;99262.38;4893192;28;24451;-68
2023/12/05 02:42:38;;;;;;;6.85;4.03;;;3.70;99.90;;;3.71;100.00;99264.34;4892460;28;24503;-69
2023/12/05 02:45:02;;;;;;;13.50;7.53;;;3.70;99.90;;;3.79;100.00;99271.59;4891883;28;24496;-69
2023/12/05 02:47:29;;;;;;;10.40;6.80;;;3.70;99.90;;;3.76;100.00;99264.03;4884885;28;24460;-69
2023/12/05 02:49:51;;;;;;;11.55;6.53;;;3.70;99.90;;;3.81;100.00;99267.97;4883773;28;24917;-69
2023/12/05 02:52:13;;;;;;;9.32;6.25;;;3.70;99.90;;;3.87;100.00;99271.91;4873236;28;25182;-69
2023/12/05 02:54:35;;;;;;;11.30;7.10;;;3.80;99.90;;;3.98;100.00;99264.28;4887980;28;24808;-68
2023/12/05 02:56:57;;;;;;;11.18;6.47;;;3.90;99.90;;;4.00;100.00;99272.75;4876397;28;25003;-69
2023/12/05 02:59:19;;;;;;;10.45;5.95;;;3.90;99.90;;;4.01;100.00;99263.22;4878858;28;24531;-68
2023/12/05 03:01:41;;;;;;;14.05;7.55;;;3.90;99.90;;;4.04;100.00;99274.19;4878196;28;25089;-69
2023/12/05 03:04:03;;;;;;;14.25;7.90;;;4.00;99.90;;;4.07;100.00;99270.59;4882449;28;20792;-67
2023/12/05 03:06:27;;;;;;;13.70;7.90;;;4.00;99.90;;;4.03;100.00;99271.69;4883789;28;24447;-69
2023/12/05 03:08:49;;;;;;;13.00;8.00;;;4.00;99.90;;;4.01;100.00;99274.38;4874154;28;20797;-69
2023/12/05 03:11:11;;;;;;;12.65;7.15;;;4.00;99.90;;;4.04;100.00;99270.78;4877737;28;24448;-69
2023/12/05 03:13:33;;;;;;;13.90;8.13;;;3.90;99.90;;;4.05;100.00;99275.84;4883643;28;24545;-69
2023/12/05 03:15:55;;;;;;;12.55;6.95;;;4.00;99.90;;;4.10;100.00;99284.09;4893239;28;24485;-68
2023/12/05 03:18:17;;;;;;;12.23;7.60;;;4.00;99.90;;;4.13;100.00;99276.16;4891448;28;24445;-69
2023/12/05 03:20:39;;;;;;;12.25;7.20;;;4.00;99.90;;;4.26;100.00;99282.13;4892721;28;24529;-70
2023/12/05 03:23:01;;;;;;;13.25;7.75;;;4.20;99.90;;;4.35;100.00;99276.38;4889481;28;24505;-69
2023/12/05 03:25:23;;;;;;;10.38;6.93;;;4.20;99.90;;;4.43;100.00;99278.44;4874507;28;24427;-69
2023/12/05 03:27:45;;;;;;;12.30;7.50;;;4.30;99.90;;;4.48;100.00;99278.94;4876413;28;20795;-69
2023/12/05 03:30:08;;;;;;;11.05;6.85;;;4.40;99.90;;;4.49;100.00;99281.41;4892473;28;24434;-70
2023/12/05 03:32:30;;;;;;;10.38;6.70;;;4.40;99.90;;;4.45;100.00;99279.97;4891864;28;24458;-68
2023/12/05 03:34:52;;;;;;;9.90;6.25;;;4.40;99.90;;;4.42;100.00;99284.53;4883938;28;24476;-68
2023/12/05 03:37:14;;;;;;;9.88;6.28;;;4.30;99.90;;;4.37;100.00;99278.84;4880291;28;24513;-70
2023/12/05 03:39:36;;;;;;;11.20;6.78;;;4.30;99.90;;;4.38;100.00;99293.41;4876429;28;24490;-70
2023/12/05 03:41:58;;;;;;;10.55;6.70;;;4.30;99.90;;;4.34;100.00;99287.63;4873696;28;25336;-71
2023/12/05 03:44:20;;;;;;;10.75;6.40;;;4.20;99.90;;;4.37;100.00;99290.00;4879891;28;24520;-70
2023/12/05 03:46:42;;;;;;;11.88;7.00;;;4.30;99.90;;;4.34;100.00;99295.38;4883124;28;24458;-70
2023/12/05 03:49:04;;;;;;;10.77;6.53;;;4.20;99.90;;;4.35;100.00;99299.59;4878268;28;24444;-71
2023/12/05 03:51:26;;;;;;;11.15;6.88;;;4.30;99.90;;;4.42;100.00;99297.44;4878621;28;24435;-68
2023/12/05 03:53:48;;;;;;;11.13;6.72;;;4.30;99.90;;;4.42;100.00;99295.69;4881438;28;25010;-68
2023/12/05 03:56:11;;;;;;;12.40;6.80;;;4.30;99.90;;;4.36;100.00;99296.09;4906539;28;24448;-69
2023/12/05 03:58:32;;;;;;;7.93;5.60;;;4.30;99.90;;;4.40;100.00;99305.28;4891694;28;24430;-70
2023/12/05 04:00:55;;;;;;;9.73;6.22;;;4.30;99.90;;;4.33;100.00;99304.03;4891423;28;24447;-70
2023/12/05 04:03:17;;;;;;;11.90;7.05;;;4.30;99.90;;;4.35;100.00;99306.50;4879267;28;24485;-69
2023/12/05 04:05:39;;;;;;;11.50;7.25;;;4.30;99.90;;;4.31;100.00;99298.16;4872650;28;24423;-70
2023/12/05 04:08:01;;;;;;;11.25;7.38;;;4.30;99.90;;;4.36;100.00;99313.34;4879804;28;24458;-69
2023/12/05 04:10:23;;;;;;;11.20;6.68;;;4.20;99.90;;;4.42;100.00;99303.44;4873987;28;24476;-70
2023/12/05 04:12:48;;;;;;;11.65;7.05;;;4.30;99.90;;;4.51;100.00;99302.81;4872928;28;24478;-69
2023/12/05 04:15:10;;;;;;;10.73;6.00;;;4.40;99.90;;;4.52;100.00;99296.69;4877108;28;25022;-70
2023/12/05 04:17:33;;;;;;;10.48;6.50;;;4.40;99.90;;;4.59;100.00;99297.94;4879162;28;24853;-70
2023/12/05 04:19:55;;;;;;;10.05;6.28;;;4.50;99.90;;;4.60;100.00;99297.00;4881070;28;24427;-70
2023/12/05 04:22:18;;;;;;;10.15;6.70;;;4.50;99.90;;;4.62;100.00;99289.97;4872917;28;24569;-68
2023/12/05 04:24:40;;;;;;;10.10;6.30;;;4.50;99.90;;;4.63;100.00;99298.56;4880451;28;24466;-70
2023/12/05 04:27:03;;;;;;;8.95;6.30;;;4.60;99.90;;;4.64;100.00;99295.84;4893227;28;25022;-69
2023/12/05 04:29:28;;;;;;;8.13;5.22;;;4.60;99.90;;;4.64;100.00;99301.03;4905213;28;20806;-70
2023/12/05 04:31:50;;;;;;;10.18;6.50;;;4.60;99.90;;;4.64;100.00;99289.88;4893695;28;24556;-70
2023/12/05 04:34:12;;;;;;;9.05;5.78;;;4.60;99.90;;;4.63;100.00;99296.81;4888642;28;25068;-66
2023/12/05 04:36:34;;;;;;;8.23;5.30;;;4.60;99.90;;;4.57;100.00;99286.91;4893861;28;24514;-70
2023/12/05 04:38:56;;;;;;;8.00;5.07;;;4.60;99.90;;;4.65;100.00;99292.34;4891314;28;20821;-70
2023/12/05 04:41:18;;;;;;;5.37;3.37;;;4.60;99.90;;;4.71;100.00;99288.50;4871265;28;24439;-69
2023/12/05 04:43:40;;;;;;;7.65;5.15;;;4.60;99.90;;;4.80;100.00;99292.22;4890692;28;24527;-70
2023/12/05 04:46:02;;;;;;;4.10;3.25;;;4.70;99.90;;;4.77;100.00;99288.09;4887924;28;24542;-70
2023/12/05 04:48:24;;;;;;;7.85;4.75;;;4.70;99.90;;;4.79;100.00;99290.59;4882388;28;24447;-69
2023/12/05 04:50:46;;;;;;;5.32;4.00;;;4.70;99.90;;;4.82;100.00;99287.75;4887036;28;24488;-70
2023/12/05 04:53:08;;;;;;;7.22;4.60;;;4.70;99.90;;;4.88;100.00;99298.50;4880876;28;24438;-70
2023/12/05 04:55:30;;;;;;;5.80;3.90;;;4.80;99.90;;;4.89;100.00;99294.16;4889516;28;24446;-71
2023/12/05 04:57:52;;;;;;;5.22;3.78;;;4.80;99.90;;;4.94;100.00;99294.69;4892890;28;24488;-71
2023/12/05 05:00:14;;;;;;;3.50;2.53;;;4.80;99.90;;;4.89;100.00;99296.75;4890023;28;24990;-70
2023/12/05 05:02:36;;;;;;;5.97;3.63;;;4.80;99.90;;;4.89;100.00;99301.91;4884282;28;24964;-69
2023/12/05 05:04:58;;;;;;;5.72;4.22;;;4.90;99.90;;;5.10;100.00;99300.41;4890037;28;24853;-70
2023/12/05 05:07:21;;;;;;;4.03;2.60;;;5.00;99.90;;;5.12;100.00;99293.38;4887468;28;24504;-70
2023/12/05 05:09:43;;;;;;;2.87;2.13;;;5.00;99.90;;;5.05;100.00;99292.16;4883552;28;24531;-70
2023/12/05 05:12:08;;;;;;;4.70;3.20;;;5.00;99.90;;;5.07;100.00;99296.28;4893288;28;24457;-71
2023/12/05 05:14:30;;;;;;;2.80;2.45;;;5.00;99.90;;;5.11;100.00;99297.72;4892150;28;24999;-71
2023/12/05 05:16:52;;;;;;;3.30;2.40;;;5.00;99.90;;;5.15;100.00;99294.00;4887241;28;24968;-70
2023/12/05 05:19:14;;;;;;;3.33;2.95;;;5.10;99.90;;;5.23;100.00;99296.88;4880208;28;20757;-68
2023/12/05 05:21:36;;;;;;;3.20;2.60;;;5.10;99.90;;;5.30;100.00;99300.66;4898277;28;24461;-70
2023/12/05 05:23:58;;;;;;;4.72;3.33;;;5.20;99.90;;;5.27;100.00;99300.88;4884740;28;24449;-70
2023/12/05 05:26:20;;;;;;;4.25;3.08;;;5.20;99.90;;;5.27;100.00;99305.22;4897055;28;25054;-70
2023/12/05 05:28:42;;;;;;;4.03;2.63;;;5.20;99.90;;;5.34;100.00;99303.84;4896107;28;25186;-70
2023/12/05 05:31:05;;;;;;;1.70;1.50;;;5.20;99.90;;;5.43;100.00;99308.38;4896585;28;24423;-70
2023/12/05 05:33:27;;;;;;;3.60;2.60;;;5.30;99.90;;;5.46;100.00;99310.72;4883188;28;24517;-69
2023/12/05 05:35:50;;;;;;;3.47;2.92;;;5.40;99.90;;;5.49;100.00;99310.53;4878826;28;24995;-69
2023/12/05 05:38:12;;;;;;;3.90;3.33;;;5.40;99.90;;;5.50;100.00;99312.16;4887664;28;24529;-69
2023/12/05 05:40:34;;;;;;;2.55;2.35;;;5.40;99.90;;;5.56;100.00;99309.13;4895238;28;24514;-69
2023/12/05 05:42:56;;;;;;;3.10;2.40;;;5.40;99.90;;;5.61;100.00;99303.63;4884776;28;24496;-69
2023/12/05 05:45:18;;;;;;;4.70;2.60;;;5.50;99.90;;;5.59;100.00;99308.91;4888356;28;24438;-68
2023/12/05 05:47:40;;;;;;;1.40;1.30;;;5.50;99.90;;;5.57;100.00;99308.22;4877302;28;24442;-69
2023/12/05 05:50:01;;;;;;;2.20;2.00;;;5.50;99.90;;;5.58;100.00;99302.06;4884578;28;24424;-69
2023/12/05 05:52:24;;;;;;;2.10;1.80;;;5.60;99.90;;;5.63;100.00;99318.09;4890391;28;20774;-69
2023/12/05 05:54:49;;;;;;;1.77;1.67;;;5.50;99.90;;;5.67;100.00;99319.53;4890735;28;24539;-69
2023/12/05 05:57:11;;;;;;;2.40;1.70;;;5.60;99.90;;;5.64;100.00;99319.78;4894585;28;20944;-66
2023/12/05 05:59:33;;;;;;;1.98;1.85;;;5.60;99.90;;;5.56;100.00;99316.09;4889550;28;24551;-69
2023/12/05 06:01:55;;;;;;;4.60;2.65;;;5.50;99.90;;;5.61;100.00;99322.56;4882459;28;24491;-69
2023/12/05 06:04:17;;;;;;;1.70;1.60;;;5.50;99.90;;;5.67;100.00;99323.88;4886246;28;24431;-69
2023/12/05 06:06:40;;;;;;;3.00;2.80;;;5.50;99.90;;;5.54;100.00;99317.97;4887734;28;24473;-69
2023/12/05 06:09:01;;;;;;;3.22;2.63;;;5.50;99.90;;;5.58;100.00;99327.94;4878740;28;21151;-68
2023/12/05 06:11:23;;;;;;;4.25;3.05;;;5.50;99.90;;;5.58;100.00;99321.97;4880528;28;24463;-68
2023/12/05 06:13:45;;;;;;;3.03;2.47;;;5.50;99.90;;;5.51;100.00;99321.59;4881475;28;24447;-69
2023/12/05 06:16:08;;;;;;;4.47;2.90;;;5.40;99.90;;;5.55;100.00;99324.78;4894139;28;24510;-69
2023/12/05 06:18:29;;;;;;;2.10;1.90;;;5.50;99.90;;;5.62;100.00;99331.16;4887080;28;20783;-69
2023/12/05 06:20:54;;;;;;;1.63;1.52;;;5.50;99.90;;;5.59;100.00;99332.22;4889857;28;24492;-69
2023/12/05 06:23:16;;;;;;;2.20;2.00;;;5.50;99.90;;;5.64;100.00;99329.28;4884274;28;24438;-69
2023/12/05 06:25:39;;;;;;;2.90;2.30;;;5.50;99.90;;;5.63;100.00;99336.22;4891715;28;24879;-69
2023/12/05 06:28:01;;;;;;;1.58;1.48;;;5.50;99.90;;;5.67;100.00;99337.66;4894219;28;20766;-69
2023/12/05 06:30:23;;;;;;;2.60;2.40;;;5.60;99.90;;;5.64;100.00;99342.22;4879389;28;24420;-70
2023/12/05 06:32:48;;;;;;;1.45;1.35;;;5.60;99.90;;;5.70;100.00;99339.19;4886367;28;20761;-69
2023/12/05 06:35:10;;;;;;;2.33;2.13;;;5.60;99.90;;;5.68;100.00;99344.50;4885940;28;24454;-69
2023/12/05 06:37:32;;;;;;;2.92;1.85;;;5.60;99.90;;;5.65;100.00;99344.69;4892048;28;21342;-69
2023/12/05 06:39:54;;;;;;;3.38;2.28;;;5.60;99.90;;;5.70;100.00;99342.63;4894582;28;24997;-69
2023/12/05 06:42:16;;;;;;;1.58;1.48;;;5.60;99.90;;;5.70;100.00;99347.78;4881000;28;20779;-69
2023/12/05 06:44:38;;;;;;;1.42;1.33;;;5.60;99.90;;;5.71;100.00;99341.66;4875201;28;24480;-69
2023/12/05 06:47:00;;;;;;;2.00;1.80;;;5.60;99.90;;;5.75;100.00;99347.47;4880505;28;20871;-69
2023/12/05 06:49:22;;;;;;;3.10;2.80;;;5.70;99.90;;;5.79;100.00;99348.88;4882105;28;24507;-69
2023/12/05 06:51:45;;;;;;;1.60;1.50;;;5.70;99.90;;;5.77;100.00;99346.38;4877542;28;20771;-69
2023/12/05 06:54:07;;;;;;;2.50;2.30;;;5.70;99.90;;;5.82;100.00;99351.22;4894359;28;24820;-69
2023/12/05 06:56:29;;;;;;;1.90;1.80;;;5.70;99.90;;;5.78;100.00;99358.41;4884888;28;20761;-69
2023/12/05 06:58:50;;;;;;;2.23;1.77;;;5.70;99.90;;;5.88;100.00;99362.00;4874959;28;24543;-67
2023/12/05 07:01:12;;;;;;;2.22;2.03;;;5.70;99.90;;;5.91;100.00;99358.38;4884427;28;24419;-69
2023/12/05 07:03:34;;;;;;;2.35;2.15;;;5.80;99.90;;;5.94;100.00;99358.16;4889435;28;24438;-69
2023/12/05 07:06:09;;;;;;;2.25;2.05;;;5.90;99.90;;;5.99;100.00;99358.63;4892059;28;20884;-70
2023/12/05 07:08:31;;;;;;;4.37;2.67;;;5.80;99.90;;;5.98;100.00;99362.19;4894454;28;21406;-68
2023/12/05 07:10:53;;;;;;;2.40;2.30;;;5.80;99.90;;;5.99;100.00;99361.22;4894237;28;20835;-69
2023/12/05 07:13:15;;;;;;;2.47;2.28;;;5.80;99.90;;;5.95;100.00;99373.56;4892513;28;24442;-68
2023/12/05 07:15:37;;;;;;;4.55;2.60;;;5.90;99.90;;;6.00;100.00;99376.66;4892157;28;21361;-69
2023/12/05 07:17:59;;;;;;;2.60;2.40;;;5.80;99.90;;;6.05;100.00;99373.72;4877335;28;24443;-69
2023/12/05 07:20:21;;;;;;;2.20;2.00;;;5.90;99.90;;;6.00;100.00;99379.25;4893649;28;20917;-69
2023/12/05 07:22:44;;;;;;;2.90;2.23;;;5.90;99.90;;;6.04;100.00;99383.28;4884388;28;24590;-69
2023/12/05 07:25:06;;;;;;;2.13;1.80;;;5.90;99.90;;;6.04;100.00;99378.09;4891892;28;20795;-68
2023/12/05 07:27:28;;;;;;;2.08;1.90;;;6.00;99.90;;;6.12;100.00;99393.88;4894840;28;24542;-67
2023/12/05 07:29:50;;;;;;;1.70;1.60;;;6.00;99.90;;;6.18;100.00;99398.59;4894484;28;24445;-68
2023/12/05 07:32:12;;;;;;;1.75;1.40;;;6.00;99.90;;;6.23;100.00;99400.88;4888086;28;25070;-69
2023/12/05 07:34:34;;;;;;;1.60;1.50;;;6.10;99.90;;;6.28;100.00;99401.38;4890160;28;20789;-68
2023/12/05 07:36:56;;;;;;;1.05;1.05;;;6.20;99.90;;;6.17;100.00;99398.72;4885864;28;24447;-69
2023/12/05 07:39:18;;;;;;;1.10;1.00;;;6.10;99.90;;;6.22;100.00;99405.22;4882066;28;20850;-66
2023/12/05 07:41:40;;;;;;;1.05;1.05;;;6.10;99.90;;;6.23;100.00;99403.47;4889472;28;24443;-68
2023/12/05 07:44:02;;;;;;;1.40;1.10;;;6.20;99.90;;;6.26;100.00;99406.63;4891422;28;20862;-69
2023/12/05 07:46:24;;;;;;;1.10;1.00;;;6.20;99.90;;;6.34;100.00;99407.84;4887120;28;24463;-69
2023/12/05 07:48:46;;;;;;;1.30;1.30;;;6.20;99.90;;;6.40;100.00;99410.81;4890033;28;24542;-70
2023/12/05 07:51:16;;;;;;;1.80;1.10;;;6.30;99.90;;;6.41;99.97;99409.06;4892187;28;24442;-69
2023/12/05 07:53:41;;;;;;;1.70;1.60;;;6.30;99.90;;;6.54;98.82;99410.59;4907443;28;21383;-70
2023/12/05 07:56:03;;;;;;;1.30;1.30;;;6.40;99.90;;;6.57;99.12;99418.16;4895716;28;20839;-68
2023/12/05 07:58:25;;;;;;;0.80;0.80;;;6.40;99.90;;;6.60;99.16;99412.72;4884310;28;24932;-68
2023/12/05 08:00:47;;;;;;;1.00;0.90;;;6.40;99.90;;;6.70;98.63;99415.47;4891029;28;25021;-67
2023/12/05 08:03:13;;;;;;;0.90;0.70;;;6.50;99.90;;;6.80;97.68;99408.66;4878651;28;24538;-68
2023/12/05 08:05:35;;;;;;;1.15;1.15;;;6.60;99.90;;;6.81;97.62;99418.09;4876981;28;24513;-66
2023/12/05 08:07:57;;;;;;;1.40;1.30;;;6.70;99.90;;;6.83;96.74;99411.84;4880689;28;24485;-68
2023/12/05 08:10:19;;;;;;;1.30;1.20;;;6.70;99.90;;;6.88;96.41;99408.88;4882893;28;24955;-69
2023/12/05 08:12:41;;;;;;;0.90;0.90;;;6.70;99.90;;;6.87;96.33;99417.63;4891485;28;24840;-68
2023/12/05 08:15:04;;;;;;;1.10;1.10;;;6.70;99.90;;;6.86;97.18;99415.97;4881245;28;24454;-66
2023/12/05 08:17:26;;;;;;;1.30;1.20;;;6.70;99.90;;;6.88;96.39;99420.09;4875547;28;20837;-70
2023/12/05 08:19:48;;;;;;;1.80;1.70;;;6.80;99.90;;;6.84;96.60;99413.50;4879329;28;24439;-68
2023/12/05 08:22:10;;;;;;;2.35;1.35;;;6.70;99.90;;;6.89;96.36;99426.94;4888609;28;24529;-69
2023/12/05 08:24:31;;;;;;;1.30;1.20;;;6.80;99.90;;;6.97;96.75;99428.94;4872673;28;24449;-70
2023/12/05 08:26:53;;;;;;;2.45;1.40;;;6.80;99.90;;;7.03;96.46;99428.47;4881493;28;24496;-69
2023/12/05 08:29:15;;;;;;;1.25;1.15;;;6.90;99.90;;;6.86;96.02;99427.16;4884779;28;24466;-69
2023/12/05 08:31:37;;;;;;;0.70;0.70;;;6.80;99.90;;;6.92;96.00;99431.06;4882126;28;24512;-69
2023/12/05 08:33:59;;;;;;;1.65;1.40;;;6.80;99.90;;;7.01;95.84;99436.38;4893226;28;20867;-70
2023/12/05 08:36:22;;;;;;;4.40;1.00;;;6.90;99.90;;;6.95;95.79;99441.19;4890539;28;24508;-69
2023/12/05 08:38:44;;;;;;;1.33;1.30;;;6.80;99.90;;;6.88;95.58;99425.28;4879712;28;24442;-69
2023/12/05 08:41:07;;;;;;;1.30;1.05;;;6.80;99.90;;;6.86;96.00;99437.53;4889017;28;21308;-70
2023/12/05 08:43:28;;;;;;;0.88;0.88;;;6.70;99.90;;;6.83;96.38;99434.34;4886553;28;24481;-69
2023/12/05 08:45:51;;;;;;;1.20;1.10;;;6.70;99.90;;;6.82;95.92;99437.88;4890204;28;24885;-69
2023/12/05 08:48:13;;;;;;;1.40;0.80;;;6.70;99.90;;;6.74;96.50;99435.03;4891033;28;24537;-69
2023/12/05 08:50:36;;;;;;;1.38;1.27;;;6.70;99.90;;;6.88;95.66;99438.25;4901314;28;20761;-70
2023/12/05 08:52:58;;;;;;;1.40;1.30;;;6.70;99.90;;;6.85;96.45;99445.44;4891861;28;24435;-70
2023/12/05 08:55:20;;;;;;;0.90;0.90;;;6.70;99.90;;;6.82;96.82;99450.84;4879867;28;25059;-70
2023/12/05 08:57:43;;;;;;;1.30;0.80;;;6.80;99.90;;;6.96;95.96;99456.63;4877284;28;24435;-68
2023/12/05 09:00:05;;;;;;;2.33;1.30;;;6.80;99.90;;;7.11;95.55;99461.63;4876629;28;24534;-69
2023/12/05 09:02:27;;;;;;;1.00;1.00;;;6.90;99.90;;;7.12;95.36;99464.09;4880495;28;24447;-70
2023/12/05 09:04:49;;;;;;;1.10;1.10;;;6.90;99.90;;;7.12;95.27;99464.09;4885059;28;24427;-69
2023/12/05 09:07:11;;;;;;;1.23;1.10;;;7.00;99.90;;;7.19;94.72;99465.28;4892795;28;24497;-70
2023/12/05 09:09:33;;;;;;;1.00;1.00;;;7.00;99.90;;;7.19;94.62;99478.25;4876105;28;25096;-69
2023/12/05 09:11:59;;;;;;;2.10;1.10;;;7.00;99.90;;;7.25;94.29;99467.41;4884050;28;24500;-69
2023/12/05 09:14:21;;;;;;;1.00;1.00;;;7.00;99.90;;;7.24;93.92;99481.28;4883518;28;24544;-69
2023/12/05 09:16:45;;;;;;;0.93;0.93;;;7.10;99.90;;;7.25;93.66;99482.97;4890672;28;24435;-69
2023/12/05 09:19:07;;;;;;;1.20;1.20;;;7.10;99.90;;;7.29;93.64;99479.19;4883615;28;24448;-69
2023/12/05 09:21:29;;;;;;;2.60;1.38;;;7.10;99.90;;;7.27;93.38;99483.66;4880804;28;24519;-70
2023/12/05 09:23:51;;;;;;;1.02;1.00;;;7.20;99.90;;;7.34;92.77;99484.03;4883009;28;24443;-69
2023/12/05 09:26:14;;;;;;;0.80;0.80;;;7.20;99.90;;;7.37;92.69;99491.59;4885713;28;24427;-70
2023/12/05 09:28:36;;;;;;;1.48;1.05;;;7.20;99.90;;;7.39;93.04;99497.50;4892564;28;25015;-69
2023/12/05 09:30:58;;;;;;;1.48;0.90;;;7.20;99.90;;;7.38;92.29;99495.81;4894949;28;24475;-68
2023/12/05 09:33:20;;;;;;;2.00;1.30;;;7.20;99.90;;;7.26;93.48;99502.75;4891788;28;25052;-69
2023/12/05 09:35:43;;;;;;;3.00;1.13;;;7.20;99.90;;;7.28;92.60;99506.09;4894669;28;24857;-70
2023/12/05 09:38:07;;;;;;;0.93;0.90;;;7.10;99.90;;;7.20;93.46;99512.81;4894751;28;24423;-69
2023/12/05 09:40:31;;;;;;;1.00;1.00;;;7.10;99.90;;;7.20;93.36;99515.41;4891114;28;21202;-68
2023/12/05 09:42:56;;;;;;;1.97;1.10;;;7.10;99.90;;;7.19;93.32;99514.56;4892613;28;24518;-69
2023/12/05 09:45:21;;;;;;;1.27;1.20;;;7.10;99.90;;;7.27;92.81;99512.22;4889567;28;24431;-68
2023/12/05 09:47:45;;;;;;;0.70;0.70;;;7.10;99.90;;;7.14;94.29;99513.25;4882266;28;24443;-67
2023/12/05 09:50:09;;;;;;;0.95;0.80;;;7.10;99.90;;;7.05;94.50;99504.38;4880029;28;24427;-70
2023/12/05 09:52:32;;;;;;;1.55;1.00;;;7.00;99.90;;;7.07;94.04;99508.53;4883090;28;24522;-70
2023/12/05 09:54:54;;;;;;;1.63;1.10;;;7.00;99.90;;;7.14;94.49;99502.88;4893640;28;24580;-70
2023/12/05 09:57:16;;;;;;;1.45;1.10;;;7.00;99.90;;;7.19;94.02;99509.38;4894264;28;24429;-72
2023/12/05 09:59:38;;;;;;;1.30;0.80;;;7.00;99.90;;;7.27;93.84;99514.81;4882601;28;24463;-73
2023/12/05 10:02:02;;;;;;;1.30;1.00;;;7.10;99.90;;;7.32;92.98;99506.69;4889164;28;25057;-72
2023/12/05 10:04:27;;;;;;;2.08;1.00;;;7.20;99.90;;;7.24;93.01;99504.66;4893458;28;20803;-72
2023/12/05 10:06:51;;;;;;;0.60;0.60;;;7.10;99.90;;;7.29;92.86;99501.69;4872651;28;20797;-74